sensor_id;sensor_type;location;lat;lon;timestamp;P1;durP1;ratioP1;P2;durP2;ratioP2
35522;SDS011;61478;50.820;4.330;2022-08-18T00:01:43;82.10;;;67.63;;
35522;SDS011;61478;50.820;4.330;2022-08-18T00:04:12;87.95;;;68.93;;
35522;SDS011;61478;50.820;4.330;2022-08-18T00:06:39;89.75;;;72.40;;
35522;SDS011;61478;50.820;4.330;2022-08-18T00:09:06;87.10;;;70.78;;
35522;SDS011;61478;50.820;4.330;2022-08-18T00:11:35;93.45;;;74.78;;
35522;SDS011;61478;50.820;4.330;2022-08-18T00:14:04;93.28;;;73.60;;
35522;SDS011;61478;50.820;4.330;2022-08-18T00:16:30;87.93;;;72.47;;
35522;SDS011;61478;50.820;4.330;2022-08-18T00:18:56;87.97;;;72.22;;
35522;SDS011;61478;50.820;4.330;2022-08-18T00:21:22;95.35;;;77.43;;
35522;SDS011;61478;50.820;4.330;2022-08-18T00:23:48;96.93;;;76.00;;
35522;SDS011;61478;50.820;4.330;2022-08-18T00:26:14;103.47;;;81.38;;
35522;SDS011;61478;50.820;4.330;2022-08-18T00:28:40;102.68;;;83.68;;
35522;SDS011;61478;50.820;4.330;2022-08-18T00:31:06;103.00;;;82.25;;
35522;SDS011;61478;50.820;4.330;2022-08-18T00:33:31;84.32;;;68.22;;
35522;SDS011;61478;50.820;4.330;2022-08-18T00:35:57;84.68;;;70.75;;
35522;SDS011;61478;50.820;4.330;2022-08-18T00:38:23;87.50;;;72.45;;
35522;SDS011;61478;50.820;4.330;2022-08-18T00:40:50;89.00;;;73.80;;
35522;SDS011;61478;50.820;4.330;2022-08-18T00:43:22;90.57;;;74.13;;
35522;SDS011;61478;50.820;4.330;2022-08-18T00:45:56;96.70;;;75.93;;
35522;SDS011;61478;50.820;4.330;2022-08-18T00:48:22;92.57;;;74.22;;
35522;SDS011;61478;50.820;4.330;2022-08-18T00:50:52;90.95;;;73.53;;
35522;SDS011;61478;50.820;4.330;2022-08-18T00:53:28;98.68;;;76.57;;
35522;SDS011;61478;50.820;4.330;2022-08-18T00:56:03;98.47;;;78.10;;
35522;SDS011;61478;50.820;4.330;2022-08-18T00:58:43;97.72;;;78.55;;
35522;SDS011;61478;50.820;4.330;2022-08-18T01:01:13;104.55;;;80.25;;
35522;SDS011;61478;50.820;4.330;2022-08-18T01:03:41;100.75;;;78.15;;
35522;SDS011;61478;50.820;4.330;2022-08-18T01:06:21;108.85;;;83.57;;
35522;SDS011;61478;50.820;4.330;2022-08-18T01:08:52;111.93;;;84.68;;
35522;SDS011;61478;50.820;4.330;2022-08-18T01:11:20;109.07;;;82.65;;
35522;SDS011;61478;50.820;4.330;2022-08-18T01:13:46;114.05;;;85.03;;
35522;SDS011;61478;50.820;4.330;2022-08-18T01:16:12;108.93;;;82.38;;
35522;SDS011;61478;50.820;4.330;2022-08-18T01:18:56;112.78;;;84.85;;
35522;SDS011;61478;50.820;4.330;2022-08-18T01:21:42;111.45;;;82.22;;
35522;SDS011;61478;50.820;4.330;2022-08-18T01:24:21;122.25;;;88.53;;
35522;SDS011;61478;50.820;4.330;2022-08-18T01:27:10;109.57;;;84.93;;
35522;SDS011;61478;50.820;4.330;2022-08-18T01:29:46;116.53;;;84.07;;
35522;SDS011;61478;50.820;4.330;2022-08-18T01:32:14;109.03;;;83.50;;
35522;SDS011;61478;50.820;4.330;2022-08-18T01:34:44;109.95;;;82.10;;
35522;SDS011;61478;50.820;4.330;2022-08-18T01:37:12;107.32;;;81.28;;
35522;SDS011;61478;50.820;4.330;2022-08-18T01:39:41;106.22;;;80.88;;
35522;SDS011;61478;50.820;4.330;2022-08-18T01:42:07;102.75;;;76.55;;
35522;SDS011;61478;50.820;4.330;2022-08-18T01:44:34;99.07;;;75.15;;
35522;SDS011;61478;50.820;4.330;2022-08-18T01:47:00;96.35;;;72.15;;
35522;SDS011;61478;50.820;4.330;2022-08-18T01:49:26;88.85;;;71.57;;
35522;SDS011;61478;50.820;4.330;2022-08-18T01:51:53;90.00;;;71.95;;
35522;SDS011;61478;50.820;4.330;2022-08-18T01:54:19;91.97;;;74.80;;
35522;SDS011;61478;50.820;4.330;2022-08-18T01:56:46;89.25;;;70.10;;
35522;SDS011;61478;50.820;4.330;2022-08-18T01:59:13;90.05;;;72.35;;
35522;SDS011;61478;50.820;4.330;2022-08-18T02:01:40;90.18;;;70.97;;
35522;SDS011;61478;50.820;4.330;2022-08-18T02:04:08;82.57;;;68.90;;
35522;SDS011;61478;50.820;4.330;2022-08-18T02:06:36;89.85;;;70.55;;
35522;SDS011;61478;50.820;4.330;2022-08-18T02:09:03;81.53;;;67.18;;
35522;SDS011;61478;50.820;4.330;2022-08-18T02:11:29;86.32;;;70.50;;
35522;SDS011;61478;50.820;4.330;2022-08-18T02:13:55;88.50;;;69.70;;
35522;SDS011;61478;50.820;4.330;2022-08-18T02:16:21;84.57;;;67.85;;
35522;SDS011;61478;50.820;4.330;2022-08-18T02:18:46;87.40;;;69.80;;
35522;SDS011;61478;50.820;4.330;2022-08-18T02:21:14;82.68;;;66.85;;
35522;SDS011;61478;50.820;4.330;2022-08-18T02:23:42;86.75;;;67.20;;
35522;SDS011;61478;50.820;4.330;2022-08-18T02:26:10;82.47;;;67.40;;
35522;SDS011;61478;50.820;4.330;2022-08-18T02:28:39;82.40;;;67.28;;
35522;SDS011;61478;50.820;4.330;2022-08-18T02:31:06;83.05;;;67.80;;
35522;SDS011;61478;50.820;4.330;2022-08-18T02:33:34;81.90;;;67.20;;
35522;SDS011;61478;50.820;4.330;2022-08-18T02:36:00;79.65;;;66.40;;
35522;SDS011;61478;50.820;4.330;2022-08-18T02:38:26;87.95;;;66.93;;
35522;SDS011;61478;50.820;4.330;2022-08-18T02:40:57;83.97;;;68.53;;
35522;SDS011;61478;50.820;4.330;2022-08-18T02:43:24;82.38;;;66.35;;
35522;SDS011;61478;50.820;4.330;2022-08-18T02:45:50;84.03;;;67.32;;
35522;SDS011;61478;50.820;4.330;2022-08-18T02:48:16;90.80;;;72.15;;
35522;SDS011;61478;50.820;4.330;2022-08-18T02:50:58;84.30;;;68.15;;
35522;SDS011;61478;50.820;4.330;2022-08-18T02:53:39;92.18;;;71.18;;
35522;SDS011;61478;50.820;4.330;2022-08-18T02:56:08;92.05;;;70.75;;
35522;SDS011;61478;50.820;4.330;2022-08-18T02:58:44;99.00;;;74.65;;
35522;SDS011;61478;50.820;4.330;2022-08-18T03:01:11;94.22;;;72.88;;
35522;SDS011;61478;50.820;4.330;2022-08-18T03:03:37;102.10;;;76.10;;
35522;SDS011;61478;50.820;4.330;2022-08-18T03:06:03;94.47;;;72.82;;
35522;SDS011;61478;50.820;4.330;2022-08-18T03:08:30;98.70;;;75.80;;
35522;SDS011;61478;50.820;4.330;2022-08-18T03:10:56;101.93;;;76.68;;
35522;SDS011;61478;50.820;4.330;2022-08-18T03:13:22;98.97;;;74.57;;
35522;SDS011;61478;50.820;4.330;2022-08-18T03:15:49;101.95;;;75.70;;
35522;SDS011;61478;50.820;4.330;2022-08-18T03:18:15;101.82;;;77.38;;
35522;SDS011;61478;50.820;4.330;2022-08-18T03:20:41;106.32;;;76.20;;
35522;SDS011;61478;50.820;4.330;2022-08-18T03:23:10;111.47;;;78.28;;
35522;SDS011;61478;50.820;4.330;2022-08-18T03:25:44;104.70;;;75.80;;
35522;SDS011;61478;50.820;4.330;2022-08-18T03:28:11;92.68;;;70.50;;
35522;SDS011;61478;50.820;4.330;2022-08-18T03:30:38;89.97;;;69.70;;
35522;SDS011;61478;50.820;4.330;2022-08-18T03:33:04;99.18;;;74.03;;
35522;SDS011;61478;50.820;4.330;2022-08-18T03:35:29;104.18;;;76.63;;
35522;SDS011;61478;50.820;4.330;2022-08-18T03:37:58;109.95;;;77.18;;
35522;SDS011;61478;50.820;4.330;2022-08-18T03:40:24;94.80;;;70.93;;
35522;SDS011;61478;50.820;4.330;2022-08-18T03:42:50;93.13;;;69.65;;
35522;SDS011;61478;50.820;4.330;2022-08-18T03:45:16;98.78;;;73.38;;
35522;SDS011;61478;50.820;4.330;2022-08-18T03:47:42;101.53;;;72.63;;
35522;SDS011;61478;50.820;4.330;2022-08-18T03:50:10;100.28;;;72.97;;
35522;SDS011;61478;50.820;4.330;2022-08-18T03:52:36;99.72;;;72.85;;
35522;SDS011;61478;50.820;4.330;2022-08-18T03:55:03;118.60;;;77.15;;
35522;SDS011;61478;50.820;4.330;2022-08-18T03:57:30;122.10;;;80.63;;
35522;SDS011;61478;50.820;4.330;2022-08-18T03:59:56;118.45;;;79.10;;
35522;SDS011;61478;50.820;4.330;2022-08-18T04:02:23;114.55;;;78.03;;
35522;SDS011;61478;50.820;4.330;2022-08-18T04:04:48;118.03;;;78.97;;
35522;SDS011;61478;50.820;4.330;2022-08-18T04:07:15;108.07;;;75.75;;
35522;SDS011;61478;50.820;4.330;2022-08-18T04:09:41;100.55;;;72.28;;
35522;SDS011;61478;50.820;4.330;2022-08-18T04:12:10;101.25;;;71.75;;
35522;SDS011;61478;50.820;4.330;2022-08-18T04:14:38;100.65;;;73.20;;
35522;SDS011;61478;50.820;4.330;2022-08-18T04:17:06;96.78;;;70.53;;
35522;SDS011;61478;50.820;4.330;2022-08-18T04:19:33;103.35;;;70.53;;
35522;SDS011;61478;50.820;4.330;2022-08-18T04:22:00;101.45;;;72.82;;
35522;SDS011;61478;50.820;4.330;2022-08-18T04:24:29;93.72;;;69.30;;
35522;SDS011;61478;50.820;4.330;2022-08-18T04:26:58;94.55;;;70.15;;
35522;SDS011;61478;50.820;4.330;2022-08-18T04:29:25;96.32;;;69.55;;
35522;SDS011;61478;50.820;4.330;2022-08-18T04:31:52;100.03;;;70.90;;
35522;SDS011;61478;50.820;4.330;2022-08-18T04:34:19;100.00;;;69.85;;
35522;SDS011;61478;50.820;4.330;2022-08-18T04:36:47;96.93;;;71.90;;
35522;SDS011;61478;50.820;4.330;2022-08-18T04:39:15;101.53;;;69.72;;
35522;SDS011;61478;50.820;4.330;2022-08-18T04:41:42;98.65;;;70.72;;
35522;SDS011;61478;50.820;4.330;2022-08-18T04:44:08;102.30;;;69.80;;
35522;SDS011;61478;50.820;4.330;2022-08-18T04:46:40;93.45;;;67.00;;
35522;SDS011;61478;50.820;4.330;2022-08-18T04:49:09;95.40;;;65.63;;
35522;SDS011;61478;50.820;4.330;2022-08-18T04:51:38;96.70;;;66.68;;
35522;SDS011;61478;50.820;4.330;2022-08-18T04:54:06;92.13;;;67.22;;
35522;SDS011;61478;50.820;4.330;2022-08-18T04:56:35;96.40;;;68.65;;
35522;SDS011;61478;50.820;4.330;2022-08-18T04:59:06;98.15;;;69.30;;
35522;SDS011;61478;50.820;4.330;2022-08-18T05:01:35;95.47;;;68.82;;
35522;SDS011;61478;50.820;4.330;2022-08-18T05:04:03;98.30;;;69.47;;
35522;SDS011;61478;50.820;4.330;2022-08-18T05:06:29;91.15;;;67.45;;
35522;SDS011;61478;50.820;4.330;2022-08-18T05:09:00;93.93;;;67.47;;
35522;SDS011;61478;50.820;4.330;2022-08-18T05:11:28;103.80;;;69.25;;
35522;SDS011;61478;50.820;4.330;2022-08-18T05:13:58;85.90;;;65.35;;
35522;SDS011;61478;50.820;4.330;2022-08-18T05:16:32;90.07;;;65.68;;
35522;SDS011;61478;50.820;4.330;2022-08-18T05:19:04;93.32;;;67.43;;
35522;SDS011;61478;50.820;4.330;2022-08-18T05:21:32;107.00;;;68.65;;
35522;SDS011;61478;50.820;4.330;2022-08-18T05:24:01;90.53;;;65.10;;
35522;SDS011;61478;50.820;4.330;2022-08-18T05:26:28;93.45;;;66.55;;
35522;SDS011;61478;50.820;4.330;2022-08-18T05:28:54;94.10;;;63.95;;
35522;SDS011;61478;50.820;4.330;2022-08-18T05:31:21;86.60;;;61.17;;
35522;SDS011;61478;50.820;4.330;2022-08-18T05:33:48;82.80;;;63.17;;
35522;SDS011;61478;50.820;4.330;2022-08-18T05:41:50;94.50;;;61.00;;
35522;SDS011;61478;50.820;4.330;2022-08-18T05:44:27;81.65;;;60.55;;
35522;SDS011;61478;50.820;4.330;2022-08-18T05:47:02;91.68;;;63.15;;
35522;SDS011;61478;50.820;4.330;2022-08-18T05:49:30;85.72;;;61.78;;
35522;SDS011;61478;50.820;4.330;2022-08-18T05:52:02;82.65;;;62.50;;
35522;SDS011;61478;50.820;4.330;2022-08-18T05:54:41;91.10;;;62.85;;
35522;SDS011;61478;50.820;4.330;2022-08-18T05:57:32;86.50;;;61.53;;
35522;SDS011;61478;50.820;4.330;2022-08-18T06:00:04;84.82;;;60.53;;
35522;SDS011;61478;50.820;4.330;2022-08-18T06:02:36;85.35;;;61.78;;
35522;SDS011;61478;50.820;4.330;2022-08-18T06:05:22;84.22;;;60.47;;
35522;SDS011;61478;50.820;4.330;2022-08-18T06:08:00;81.07;;;60.60;;
35522;SDS011;61478;50.820;4.330;2022-08-18T06:10:34;86.18;;;60.63;;
35522;SDS011;61478;50.820;4.330;2022-08-18T06:13:01;88.13;;;61.75;;
35522;SDS011;61478;50.820;4.330;2022-08-18T06:26:42;89.40;;;58.58;;
35522;SDS011;61478;50.820;4.330;2022-08-18T06:32:19;92.78;;;59.85;;
35522;SDS011;61478;50.820;4.330;2022-08-18T06:37:35;89.15;;;59.00;;
35522;SDS011;61478;50.820;4.330;2022-08-18T06:40:31;88.75;;;59.92;;
35522;SDS011;61478;50.820;4.330;2022-08-18T06:42:56;82.57;;;60.15;;
35522;SDS011;61478;50.820;4.330;2022-08-18T06:45:25;83.57;;;59.08;;
35522;SDS011;61478;50.820;4.330;2022-08-18T06:50:53;75.25;;;57.22;;
35522;SDS011;61478;50.820;4.330;2022-08-18T06:53:48;85.35;;;57.88;;
35522;SDS011;61478;50.820;4.330;2022-08-18T06:56:21;76.20;;;57.72;;
35522;SDS011;61478;50.820;4.330;2022-08-18T07:01:50;73.50;;;56.10;;
35522;SDS011;61478;50.820;4.330;2022-08-18T07:07:11;76.28;;;57.15;;
35522;SDS011;61478;50.820;4.330;2022-08-18T07:09:58;78.75;;;56.97;;
35522;SDS011;61478;50.820;4.330;2022-08-18T07:12:25;73.25;;;55.05;;
35522;SDS011;61478;50.820;4.330;2022-08-18T07:14:55;75.55;;;54.70;;
35522;SDS011;61478;50.820;4.330;2022-08-18T07:17:27;80.75;;;54.45;;
35522;SDS011;61478;50.820;4.330;2022-08-18T07:23:42;62.13;;;51.65;;
35522;SDS011;61478;50.820;4.330;2022-08-18T07:25:58;68.93;;;52.60;;
35522;SDS011;61478;50.820;4.330;2022-08-18T07:28:39;69.70;;;55.17;;
35522;SDS011;61478;50.820;4.330;2022-08-18T07:33:39;84.90;;;56.15;;
35522;SDS011;61478;50.820;4.330;2022-08-18T07:36:07;71.82;;;53.80;;
35522;SDS011;61478;50.820;4.330;2022-08-18T07:38:35;68.35;;;53.63;;
35522;SDS011;61478;50.820;4.330;2022-08-18T07:46:19;68.10;;;50.60;;
35522;SDS011;61478;50.820;4.330;2022-08-18T07:49:00;75.95;;;53.40;;
35522;SDS011;61478;50.820;4.330;2022-08-18T07:54:37;63.72;;;49.05;;
35522;SDS011;61478;50.820;4.330;2022-08-18T07:57:20;66.13;;;47.38;;
35522;SDS011;61478;50.820;4.330;2022-08-18T08:02:39;58.63;;;46.70;;
35522;SDS011;61478;50.820;4.330;2022-08-18T08:08:24;59.65;;;43.88;;
35522;SDS011;61478;50.820;4.330;2022-08-18T08:16:27;36.95;;;28.30;;
35522;SDS011;61478;50.820;4.330;2022-08-18T08:21:55;51.13;;;37.50;;
35522;SDS011;61478;50.820;4.330;2022-08-18T08:24:29;50.00;;;37.13;;
35522;SDS011;61478;50.820;4.330;2022-08-18T08:27:07;51.85;;;38.58;;
35522;SDS011;61478;50.820;4.330;2022-08-18T08:29:48;51.30;;;36.83;;
35522;SDS011;61478;50.820;4.330;2022-08-18T08:34:56;49.53;;;36.92;;
35522;SDS011;61478;50.820;4.330;2022-08-18T08:37:32;52.95;;;34.97;;
35522;SDS011;61478;50.820;4.330;2022-08-18T08:42:48;28.98;;;23.73;;
35522;SDS011;61478;50.820;4.330;2022-08-18T08:45:35;14.40;;;12.38;;
35522;SDS011;61478;50.820;4.330;2022-08-18T08:48:08;20.15;;;12.10;;
35522;SDS011;61478;50.820;4.330;2022-08-18T08:50:46;26.85;;;18.73;;
35522;SDS011;61478;50.820;4.330;2022-08-18T08:53:31;25.70;;;14.70;;
35522;SDS011;61478;50.820;4.330;2022-08-18T08:56:08;19.35;;;15.57;;
35522;SDS011;61478;50.820;4.330;2022-08-18T09:01:19;21.90;;;17.00;;
35522;SDS011;61478;50.820;4.330;2022-08-18T09:04:16;33.50;;;16.05;;
35522;SDS011;61478;50.820;4.330;2022-08-18T09:10:03;19.38;;;11.18;;
35522;SDS011;61478;50.820;4.330;2022-08-18T09:18:49;15.88;;;11.82;;
35522;SDS011;61478;50.820;4.330;2022-08-18T09:24:05;14.25;;;11.80;;
35522;SDS011;61478;50.820;4.330;2022-08-18T09:26:51;15.73;;;11.02;;
35522;SDS011;61478;50.820;4.330;2022-08-18T09:32:36;15.20;;;10.27;;
35522;SDS011;61478;50.820;4.330;2022-08-18T09:35:10;14.07;;;10.10;;
35522;SDS011;61478;50.820;4.330;2022-08-18T09:37:55;12.35;;;9.80;;
35522;SDS011;61478;50.820;4.330;2022-08-18T09:40:49;12.70;;;11.05;;
35522;SDS011;61478;50.820;4.330;2022-08-18T09:43:57;15.93;;;9.90;;
35522;SDS011;61478;50.820;4.330;2022-08-18T09:51:47;13.77;;;9.02;;
35522;SDS011;61478;50.820;4.330;2022-08-18T09:54:21;12.55;;;8.90;;
35522;SDS011;61478;50.820;4.330;2022-08-18T10:02:12;17.27;;;7.65;;
35522;SDS011;61478;50.820;4.330;2022-08-18T10:05:30;15.07;;;8.57;;
35522;SDS011;61478;50.820;4.330;2022-08-18T10:10:48;15.85;;;7.70;;
35522;SDS011;61478;50.820;4.330;2022-08-18T10:15:47;9.57;;;6.57;;
35522;SDS011;61478;50.820;4.330;2022-08-18T10:21:17;11.65;;;8.95;;
35522;SDS011;61478;50.820;4.330;2022-08-18T10:31:31;13.60;;;5.75;;
35522;SDS011;61478;50.820;4.330;2022-08-18T10:34:35;11.98;;;6.20;;
35522;SDS011;61478;50.820;4.330;2022-08-18T10:37:25;6.13;;;5.55;;
35522;SDS011;61478;50.820;4.330;2022-08-18T10:42:42;5.60;;;4.70;;
35522;SDS011;61478;50.820;4.330;2022-08-18T10:48:15;7.60;;;5.45;;
35522;SDS011;61478;50.820;4.330;2022-08-18T10:59:00;10.55;;;5.80;;
35522;SDS011;61478;50.820;4.330;2022-08-18T11:07:05;6.85;;;5.65;;
35522;SDS011;61478;50.820;4.330;2022-08-18T11:09:36;5.82;;;5.25;;
35522;SDS011;61478;50.820;4.330;2022-08-18T11:12:04;6.93;;;4.80;;
35522;SDS011;61478;50.820;4.330;2022-08-18T11:17:02;9.82;;;6.82;;
35522;SDS011;61478;50.820;4.330;2022-08-18T11:19:42;8.52;;;6.85;;
35522;SDS011;61478;50.820;4.330;2022-08-18T11:22:27;12.52;;;7.38;;
35522;SDS011;61478;50.820;4.330;2022-08-18T11:24:55;8.52;;;6.10;;
35522;SDS011;61478;50.820;4.330;2022-08-18T11:27:22;6.75;;;6.13;;
35522;SDS011;61478;50.820;4.330;2022-08-18T11:29:53;8.90;;;5.60;;
35522;SDS011;61478;50.820;4.330;2022-08-18T11:35:00;10.20;;;6.55;;
35522;SDS011;61478;50.820;4.330;2022-08-18T11:37:46;6.97;;;6.18;;
35522;SDS011;61478;50.820;4.330;2022-08-18T11:42:47;9.00;;;6.38;;
35522;SDS011;61478;50.820;4.330;2022-08-18T11:45:20;8.88;;;8.00;;
35522;SDS011;61478;50.820;4.330;2022-08-18T11:50:46;8.60;;;7.40;;
35522;SDS011;61478;50.820;4.330;2022-08-18T11:53:14;11.52;;;7.00;;
35522;SDS011;61478;50.820;4.330;2022-08-18T11:56:04;9.80;;;6.85;;
35522;SDS011;61478;50.820;4.330;2022-08-18T11:58:58;11.15;;;7.18;;
35522;SDS011;61478;50.820;4.330;2022-08-18T12:01:54;7.50;;;6.78;;
35522;SDS011;61478;50.820;4.330;2022-08-18T12:04:37;7.40;;;6.75;;
35522;SDS011;61478;50.820;4.330;2022-08-18T12:07:13;8.20;;;6.47;;
35522;SDS011;61478;50.820;4.330;2022-08-18T12:09:43;7.70;;;6.93;;
35522;SDS011;61478;50.820;4.330;2022-08-18T12:14:56;8.20;;;7.32;;
35522;SDS011;61478;50.820;4.330;2022-08-18T12:17:23;10.13;;;7.95;;
35522;SDS011;61478;50.820;4.330;2022-08-18T12:19:50;8.35;;;7.55;;
35522;SDS011;61478;50.820;4.330;2022-08-18T12:22:22;9.38;;;7.70;;
35522;SDS011;61478;50.820;4.330;2022-08-18T12:24:50;8.20;;;7.38;;
35522;SDS011;61478;50.820;4.330;2022-08-18T12:27:17;11.55;;;6.43;;
35522;SDS011;61478;50.820;4.330;2022-08-18T12:29:45;7.85;;;6.45;;
35522;SDS011;61478;50.820;4.330;2022-08-18T12:32:12;13.32;;;7.82;;
35522;SDS011;61478;50.820;4.330;2022-08-18T12:34:38;6.75;;;6.15;;
35522;SDS011;61478;50.820;4.330;2022-08-18T12:37:05;8.00;;;6.70;;
35522;SDS011;61478;50.820;4.330;2022-08-18T12:39:33;8.20;;;7.18;;
35522;SDS011;61478;50.820;4.330;2022-08-18T12:41:59;7.32;;;6.28;;
35522;SDS011;61478;50.820;4.330;2022-08-18T12:44:26;12.45;;;7.70;;
35522;SDS011;61478;50.820;4.330;2022-08-18T12:46:52;7.70;;;6.90;;
35522;SDS011;61478;50.820;4.330;2022-08-18T12:49:20;42.92;;;10.35;;
35522;SDS011;61478;50.820;4.330;2022-08-18T12:51:48;10.38;;;6.55;;
35522;SDS011;61478;50.820;4.330;2022-08-18T12:54:15;12.15;;;7.72;;
35522;SDS011;61478;50.820;4.330;2022-08-18T12:56:43;8.50;;;7.60;;
35522;SDS011;61478;50.820;4.330;2022-08-18T12:59:14;8.07;;;7.07;;
35522;SDS011;61478;50.820;4.330;2022-08-18T13:01:40;7.25;;;6.53;;
35522;SDS011;61478;50.820;4.330;2022-08-18T13:04:06;8.02;;;6.70;;
35522;SDS011;61478;50.820;4.330;2022-08-18T13:06:33;6.95;;;6.35;;
35522;SDS011;61478;50.820;4.330;2022-08-18T13:09:03;7.60;;;6.80;;
35522;SDS011;61478;50.820;4.330;2022-08-18T13:11:29;8.50;;;6.63;;
35522;SDS011;61478;50.820;4.330;2022-08-18T13:13:56;8.73;;;7.18;;
35522;SDS011;61478;50.820;4.330;2022-08-18T13:16:22;10.88;;;8.90;;
35522;SDS011;61478;50.820;4.330;2022-08-18T13:18:50;9.30;;;8.20;;
35522;SDS011;61478;50.820;4.330;2022-08-18T13:21:16;11.60;;;7.97;;
35522;SDS011;61478;50.820;4.330;2022-08-18T13:23:42;10.10;;;8.98;;
35522;SDS011;61478;50.820;4.330;2022-08-18T13:26:12;13.60;;;8.93;;
35522;SDS011;61478;50.820;4.330;2022-08-18T13:28:49;9.10;;;8.13;;
35522;SDS011;61478;50.820;4.330;2022-08-18T13:31:15;9.63;;;7.30;;
35522;SDS011;61478;50.820;4.330;2022-08-18T13:33:41;9.02;;;7.03;;
35522;SDS011;61478;50.820;4.330;2022-08-18T13:36:09;11.45;;;7.22;;
35522;SDS011;61478;50.820;4.330;2022-08-18T13:38:35;12.73;;;8.00;;
35522;SDS011;61478;50.820;4.330;2022-08-18T13:41:02;6.72;;;6.03;;
35522;SDS011;61478;50.820;4.330;2022-08-18T13:43:39;6.55;;;5.90;;
35522;SDS011;61478;50.820;4.330;2022-08-18T13:46:11;14.68;;;6.75;;
35522;SDS011;61478;50.820;4.330;2022-08-18T13:48:39;9.25;;;6.25;;
35522;SDS011;61478;50.820;4.330;2022-08-18T13:51:06;10.55;;;9.63;;
35522;SDS011;61478;50.820;4.330;2022-08-18T13:53:34;8.75;;;6.53;;
35522;SDS011;61478;50.820;4.330;2022-08-18T13:56:04;9.43;;;6.28;;
35522;SDS011;61478;50.820;4.330;2022-08-18T13:58:30;7.63;;;5.80;;
35522;SDS011;61478;50.820;4.330;2022-08-18T14:00:57;9.30;;;6.18;;
35522;SDS011;61478;50.820;4.330;2022-08-18T14:03:26;11.48;;;5.97;;
35522;SDS011;61478;50.820;4.330;2022-08-18T14:05:53;18.13;;;16.30;;
35522;SDS011;61478;50.820;4.330;2022-08-18T14:08:22;8.75;;;7.38;;
35522;SDS011;61478;50.820;4.330;2022-08-18T14:10:50;8.07;;;6.03;;
35522;SDS011;61478;50.820;4.330;2022-08-18T14:13:18;7.93;;;7.13;;
35522;SDS011;61478;50.820;4.330;2022-08-18T14:15:44;7.50;;;6.80;;
35522;SDS011;61478;50.820;4.330;2022-08-18T14:18:11;15.82;;;10.82;;
35522;SDS011;61478;50.820;4.330;2022-08-18T14:20:38;7.95;;;7.03;;
35522;SDS011;61478;50.820;4.330;2022-08-18T14:23:22;8.10;;;7.30;;
35522;SDS011;61478;50.820;4.330;2022-08-18T14:26:08;9.35;;;7.70;;
35522;SDS011;61478;50.820;4.330;2022-08-18T14:28:53;12.85;;;9.52;;
35522;SDS011;61478;50.820;4.330;2022-08-18T14:31:19;12.07;;;10.88;;
35522;SDS011;61478;50.820;4.330;2022-08-18T14:33:46;13.70;;;10.10;;
35522;SDS011;61478;50.820;4.330;2022-08-18T14:36:13;9.82;;;8.35;;
35522;SDS011;61478;50.820;4.330;2022-08-18T14:38:39;9.65;;;8.52;;
35522;SDS011;61478;50.820;4.330;2022-08-18T14:41:06;11.00;;;8.23;;
35522;SDS011;61478;50.820;4.330;2022-08-18T14:43:34;8.52;;;7.78;;
35522;SDS011;61478;50.820;4.330;2022-08-18T14:46:00;10.05;;;9.02;;
35522;SDS011;61478;50.820;4.330;2022-08-18T14:48:27;10.07;;;9.02;;
35522;SDS011;61478;50.820;4.330;2022-08-18T14:50:53;19.95;;;17.33;;
35522;SDS011;61478;50.820;4.330;2022-08-18T14:53:22;10.63;;;8.90;;
35522;SDS011;61478;50.820;4.330;2022-08-18T14:55:50;16.85;;;13.52;;
35522;SDS011;61478;50.820;4.330;2022-08-18T14:58:20;12.23;;;9.98;;
35522;SDS011;61478;50.820;4.330;2022-08-18T15:00:52;11.13;;;10.02;;
35522;SDS011;61478;50.820;4.330;2022-08-18T15:03:26;11.00;;;9.75;;
35522;SDS011;61478;50.820;4.330;2022-08-18T15:05:53;10.40;;;9.40;;
35522;SDS011;61478;50.820;4.330;2022-08-18T15:08:19;11.40;;;10.25;;
35522;SDS011;61478;50.820;4.330;2022-08-18T15:10:45;16.23;;;11.68;;
35522;SDS011;61478;50.820;4.330;2022-08-18T15:13:12;13.52;;;9.93;;
35522;SDS011;61478;50.820;4.330;2022-08-18T15:15:38;12.60;;;9.35;;
35522;SDS011;61478;50.820;4.330;2022-08-18T15:18:04;13.80;;;9.55;;
35522;SDS011;61478;50.820;4.330;2022-08-18T15:20:31;11.73;;;9.05;;
35522;SDS011;61478;50.820;4.330;2022-08-18T15:23:00;10.77;;;9.70;;
35522;SDS011;61478;50.820;4.330;2022-08-18T15:25:46;10.10;;;9.13;;
35522;SDS011;61478;50.820;4.330;2022-08-18T15:28:17;12.48;;;10.82;;
35522;SDS011;61478;50.820;4.330;2022-08-18T15:30:46;14.32;;;11.95;;
35522;SDS011;61478;50.820;4.330;2022-08-18T15:33:13;13.02;;;11.63;;
35522;SDS011;61478;50.820;4.330;2022-08-18T15:35:43;15.93;;;11.80;;
35522;SDS011;61478;50.820;4.330;2022-08-18T15:38:18;10.95;;;9.77;;
35522;SDS011;61478;50.820;4.330;2022-08-18T15:40:47;17.55;;;15.05;;
35522;SDS011;61478;50.820;4.330;2022-08-18T15:43:14;13.20;;;11.63;;
35522;SDS011;61478;50.820;4.330;2022-08-18T15:45:42;12.13;;;10.88;;
35522;SDS011;61478;50.820;4.330;2022-08-18T15:48:12;23.73;;;20.73;;
35522;SDS011;61478;50.820;4.330;2022-08-18T15:50:41;17.30;;;11.35;;
35522;SDS011;61478;50.820;4.330;2022-08-18T15:53:10;10.68;;;9.60;;
35522;SDS011;61478;50.820;4.330;2022-08-18T15:55:37;18.88;;;9.98;;
35522;SDS011;61478;50.820;4.330;2022-08-18T15:58:04;12.13;;;10.88;;
35522;SDS011;61478;50.820;4.330;2022-08-18T16:00:31;13.82;;;11.60;;
35522;SDS011;61478;50.820;4.330;2022-08-18T16:02:59;14.77;;;12.30;;
35522;SDS011;61478;50.820;4.330;2022-08-18T16:05:29;16.98;;;14.48;;
35522;SDS011;61478;50.820;4.330;2022-08-18T16:07:57;10.68;;;9.63;;
35522;SDS011;61478;50.820;4.330;2022-08-18T16:10:25;11.93;;;10.93;;
35522;SDS011;61478;50.820;4.330;2022-08-18T16:12:54;12.35;;;11.15;;
35522;SDS011;61478;50.820;4.330;2022-08-18T16:15:21;14.82;;;10.63;;
35522;SDS011;61478;50.820;4.330;2022-08-18T16:17:49;14.35;;;11.07;;
35522;SDS011;61478;50.820;4.330;2022-08-18T16:20:17;14.82;;;11.43;;
35522;SDS011;61478;50.820;4.330;2022-08-18T16:22:43;15.90;;;14.15;;
35522;SDS011;61478;50.820;4.330;2022-08-18T16:25:10;14.05;;;10.50;;
35522;SDS011;61478;50.820;4.330;2022-08-18T16:27:36;12.38;;;10.52;;
35522;SDS011;61478;50.820;4.330;2022-08-18T16:30:09;11.50;;;10.30;;
35522;SDS011;61478;50.820;4.330;2022-08-18T16:32:39;10.88;;;9.25;;
35522;SDS011;61478;50.820;4.330;2022-08-18T16:35:06;11.60;;;8.80;;
35522;SDS011;61478;50.820;4.330;2022-08-18T16:37:33;13.45;;;8.35;;
35522;SDS011;61478;50.820;4.330;2022-08-18T16:39:59;9.32;;;8.52;;
35522;SDS011;61478;50.820;4.330;2022-08-18T16:42:25;7.82;;;7.03;;
35522;SDS011;61478;50.820;4.330;2022-08-18T16:44:57;11.00;;;7.45;;
35522;SDS011;61478;50.820;4.330;2022-08-18T16:47:24;12.93;;;9.43;;
35522;SDS011;61478;50.820;4.330;2022-08-18T16:49:51;9.48;;;7.78;;
35522;SDS011;61478;50.820;4.330;2022-08-18T16:52:17;14.35;;;8.32;;
35522;SDS011;61478;50.820;4.330;2022-08-18T16:54:44;11.77;;;9.95;;
35522;SDS011;61478;50.820;4.330;2022-08-18T16:57:11;14.43;;;12.93;;
35522;SDS011;61478;50.820;4.330;2022-08-18T16:59:37;6.80;;;6.10;;
35522;SDS011;61478;50.820;4.330;2022-08-18T17:02:25;6.28;;;5.63;;
35522;SDS011;61478;50.820;4.330;2022-08-18T17:05:09;16.05;;;12.05;;
35522;SDS011;61478;50.820;4.330;2022-08-18T17:07:38;8.05;;;6.72;;
35522;SDS011;61478;50.820;4.330;2022-08-18T17:10:08;8.25;;;5.88;;